sensor_id;sensor_type;location;lat;lon;timestamp;temperature;humidity
74513;DHT22;62992;52.052;8.550;2022-12-08T00:00:20;3.20;99.90
74513;DHT22;62992;52.052;8.550;2022-12-08T00:03:04;3.20;99.90
74513;DHT22;62992;52.052;8.550;2022-12-08T00:05:49;3.10;99.90
74513;DHT22;62992;52.052;8.550;2022-12-08T00:08:52;3.10;99.90
74513;DHT22;62992;52.052;8.550;2022-12-08T00:12:03;3.10;99.90
74513;DHT22;62992;52.052;8.550;2022-12-08T00:14:47;3.20;99.90
74513;DHT22;62992;52.052;8.550;2022-12-08T00:17:32;3.20;99.90
74513;DHT22;62992;52.052;8.550;2022-12-08T00:20:16;3.10;99.90
74513;DHT22;62992;52.052;8.550;2022-12-08T00:23:00;3.10;99.90
74513;DHT22;62992;52.052;8.550;2022-12-08T00:25:44;3.10;99.90
74513;DHT22;62992;52.052;8.550;2022-12-08T00:28:28;3.20;99.90
74513;DHT22;62992;52.052;8.550;2022-12-08T00:31:12;3.10;99.90
74513;DHT22;62992;52.052;8.550;2022-12-08T00:33:57;3.10;99.90
74513;DHT22;62992;52.052;8.550;2022-12-08T00:36:41;3.10;99.90
74513;DHT22;62992;52.052;8.550;2022-12-08T00:39:26;3.10;99.90
74513;DHT22;62992;52.052;8.550;2022-12-08T00:42:10;3.10;99.90
74513;DHT22;62992;52.052;8.550;2022-12-08T00:44:57;3.10;99.90
74513;DHT22;62992;52.052;8.550;2022-12-08T00:47:41;3.10;99.90
74513;DHT22;62992;52.052;8.550;2022-12-08T00:50:25;3.00;99.90
74513;DHT22;62992;52.052;8.550;2022-12-08T00:53:09;3.10;99.90
74513;DHT22;62992;52.052;8.550;2022-12-08T00:55:53;3.10;99.90
74513;DHT22;62992;52.052;8.550;2022-12-08T00:58:37;3.00;99.90
74513;DHT22;62992;52.052;8.550;2022-12-08T01:01:21;3.00;99.90
74513;DHT22;62992;52.052;8.550;2022-12-08T01:04:07;3.20;99.90
74513;DHT22;62992;52.052;8.550;2022-12-08T01:06:51;3.10;99.90
74513;DHT22;62992;52.052;8.550;2022-12-08T01:09:35;3.10;99.90
74513;DHT22;62992;52.052;8.550;2022-12-08T01:12:19;3.10;99.90
74513;DHT22;62992;52.052;8.550;2022-12-08T01:15:03;3.10;99.90
74513;DHT22;62992;52.052;8.550;2022-12-08T01:17:48;3.10;99.90
74513;DHT22;62992;52.052;8.550;2022-12-08T01:20:32;3.10;99.90
74513;DHT22;62992;52.052;8.550;2022-12-08T01:23:16;3.10;99.90
74513;DHT22;62992;52.052;8.550;2022-12-08T01:26:04;3.10;99.90
74513;DHT22;62992;52.052;8.550;2022-12-08T01:28:48;3.10;99.90
74513;DHT22;62992;52.052;8.550;2022-12-08T01:31:33;3.10;99.90
74513;DHT22;62992;52.052;8.550;2022-12-08T01:34:17;3.10;99.90
74513;DHT22;62992;52.052;8.550;2022-12-08T01:37:01;3.10;99.90
74513;DHT22;62992;52.052;8.550;2022-12-08T01:39:45;3.10;99.90
74513;DHT22;62992;52.052;8.550;2022-12-08T01:42:29;3.20;99.90
74513;DHT22;62992;52.052;8.550;2022-12-08T01:45:22;3.10;99.90
74513;DHT22;62992;52.052;8.550;2022-12-08T01:48:13;3.10;99.90
74513;DHT22;62992;52.052;8.550;2022-12-08T01:51:00;3.20;99.90
74513;DHT22;62992;52.052;8.550;2022-12-08T01:53:45;3.20;99.90
74513;DHT22;62992;52.052;8.550;2022-12-08T01:56:43;3.20;99.90
74513;DHT22;62992;52.052;8.550;2022-12-08T01:59:29;3.30;99.90
74513;DHT22;62992;52.052;8.550;2022-12-08T02:02:16;3.20;99.90
74513;DHT22;62992;52.052;8.550;2022-12-08T02:05:00;3.20;99.90
74513;DHT22;62992;52.052;8.550;2022-12-08T02:07:46;3.20;99.90
74513;DHT22;62992;52.052;8.550;2022-12-08T02:10:33;3.20;99.90
74513;DHT22;62992;52.052;8.550;2022-12-08T02:13:19;3.20;99.90
74513;DHT22;62992;52.052;8.550;2022-12-08T02:19:32;3.20;99.90
74513;DHT22;62992;52.052;8.550;2022-12-08T02:23:07;3.20;99.90
74513;DHT22;62992;52.052;8.550;2022-12-08T02:34:55;3.20;99.90
74513;DHT22;62992;52.052;8.550;2022-12-08T02:41:02;3.20;99.90
74513;DHT22;62992;52.052;8.550;2022-12-08T02:44:05;3.20;99.90
74513;DHT22;62992;52.052;8.550;2022-12-08T02:47:07;3.20;99.90
74513;DHT22;62992;52.052;8.550;2022-12-08T02:49:54;3.20;99.90
74513;DHT22;62992;52.052;8.550;2022-12-08T02:52:44;3.20;99.90
74513;DHT22;62992;52.052;8.550;2022-12-08T02:55:55;3.20;99.90
74513;DHT22;62992;52.052;8.550;2022-12-08T03:08:05;3.20;99.90
74513;DHT22;62992;52.052;8.550;2022-12-08T03:11:12;3.30;99.90
74513;DHT22;62992;52.052;8.550;2022-12-08T03:13:59;3.20;99.90
74513;DHT22;62992;52.052;8.550;2022-12-08T03:16:48;3.10;99.90
74513;DHT22;62992;52.052;8.550;2022-12-08T03:19:37;3.20;99.90
74513;DHT22;62992;52.052;8.550;2022-12-08T03:22:24;3.20;99.90
74513;DHT22;62992;52.052;8.550;2022-12-08T03:25:12;3.20;99.90
74513;DHT22;62992;52.052;8.550;2022-12-08T03:27:58;3.10;99.90
74513;DHT22;62992;52.052;8.550;2022-12-08T03:30:45;3.10;99.90
74513;DHT22;62992;52.052;8.550;2022-12-08T03:33:36;3.10;99.90
74513;DHT22;62992;52.052;8.550;2022-12-08T03:36:21;3.20;99.90
74513;DHT22;62992;52.052;8.550;2022-12-08T03:39:06;3.20;99.90
74513;DHT22;62992;52.052;8.550;2022-12-08T03:41:50;3.10;99.90
74513;DHT22;62992;52.052;8.550;2022-12-08T03:44:34;3.10;99.90
74513;DHT22;62992;52.052;8.550;2022-12-08T03:47:18;3.10;99.90
74513;DHT22;62992;52.052;8.550;2022-12-08T03:50:03;3.10;99.90
74513;DHT22;62992;52.052;8.550;2022-12-08T03:52:47;3.20;99.90
74513;DHT22;62992;52.052;8.550;2022-12-08T03:55:31;3.10;99.90
74513;DHT22;62992;52.052;8.550;2022-12-08T03:58:15;3.20;99.90
74513;DHT22;62992;52.052;8.550;2022-12-08T04:01:00;3.10;99.90
74513;DHT22;62992;52.052;8.550;2022-12-08T04:03:44;3.10;99.90
74513;DHT22;62992;52.052;8.550;2022-12-08T04:06:29;3.20;99.90
74513;DHT22;62992;52.052;8.550;2022-12-08T04:09:13;3.20;99.90
74513;DHT22;62992;52.052;8.550;2022-12-08T04:11:57;3.20;99.90
74513;DHT22;62992;52.052;8.550;2022-12-08T04:14:41;3.20;99.90
74513;DHT22;62992;52.052;8.550;2022-12-08T04:17:26;3.20;99.90
74513;DHT22;62992;52.052;8.550;2022-12-08T04:20:10;3.10;99.90
74513;DHT22;62992;52.052;8.550;2022-12-08T04:22:54;3.20;99.90
74513;DHT22;62992;52.052;8.550;2022-12-08T04:25:38;3.20;99.90
74513;DHT22;62992;52.052;8.550;2022-12-08T04:28:23;3.20;99.90
74513;DHT22;62992;52.052;8.550;2022-12-08T04:31:07;3.20;99.90
74513;DHT22;62992;52.052;8.550;2022-12-08T04:33:51;3.20;99.90
74513;DHT22;62992;52.052;8.550;2022-12-08T04:36:35;3.20;99.90
74513;DHT22;62992;52.052;8.550;2022-12-08T04:39:19;3.20;99.90
74513;DHT22;62992;52.052;8.550;2022-12-08T04:42:03;3.20;99.90
74513;DHT22;62992;52.052;8.550;2022-12-08T04:44:47;3.30;99.90
74513;DHT22;62992;52.052;8.550;2022-12-08T04:47:31;3.30;99.90
74513;DHT22;62992;52.052;8.550;2022-12-08T04:50:16;3.30;99.90
74513;DHT22;62992;52.052;8.550;2022-12-08T04:53:00;3.30;99.90
74513;DHT22;62992;52.052;8.550;2022-12-08T04:55:44;3.30;99.90
74513;DHT22;62992;52.052;8.550;2022-12-08T04:58:31;3.30;99.90
74513;DHT22;62992;52.052;8.550;2022-12-08T05:01:15;3.30;99.90
74513;DHT22;62992;52.052;8.550;2022-12-08T05:03:59;3.40;99.90
74513;DHT22;62992;52.052;8.550;2022-12-08T05:06:43;3.40;99.90
74513;DHT22;62992;52.052;8.550;2022-12-08T05:09:27;3.40;99.90
74513;DHT22;62992;52.052;8.550;2022-12-08T05:12:12;3.40;99.90
74513;DHT22;62992;52.052;8.550;2022-12-08T05:14:56;3.40;99.90
74513;DHT22;62992;52.052;8.550;2022-12-08T05:17:40;3.30;99.90
74513;DHT22;62992;52.052;8.550;2022-12-08T05:20:24;3.40;99.90
74513;DHT22;62992;52.052;8.550;2022-12-08T05:23:08;3.30;99.90
74513;DHT22;62992;52.052;8.550;2022-12-08T05:25:52;3.30;99.90
74513;DHT22;62992;52.052;8.550;2022-12-08T05:28:36;3.30;99.90
74513;DHT22;62992;52.052;8.550;2022-12-08T05:31:20;3.30;99.90
74513;DHT22;62992;52.052;8.550;2022-12-08T05:34:05;3.30;99.90
74513;DHT22;62992;52.052;8.550;2022-12-08T05:36:49;3.30;99.90
74513;DHT22;62992;52.052;8.550;2022-12-08T05:39:33;3.30;99.90
74513;DHT22;62992;52.052;8.550;2022-12-08T05:42:17;3.30;99.90
74513;DHT22;62992;52.052;8.550;2022-12-08T05:45:01;3.20;99.90
74513;DHT22;62992;52.052;8.550;2022-12-08T05:47:45;3.20;99.90
74513;DHT22;62992;52.052;8.550;2022-12-08T05:50:29;3.20;99.90
74513;DHT22;62992;52.052;8.550;2022-12-08T05:53:14;3.20;99.90
74513;DHT22;62992;52.052;8.550;2022-12-08T05:55:58;3.20;99.90
74513;DHT22;62992;52.052;8.550;2022-12-08T05:58:43;3.30;99.90
74513;DHT22;62992;52.052;8.550;2022-12-08T06:01:29;3.20;99.90
74513;DHT22;62992;52.052;8.550;2022-12-08T06:04:13;3.20;99.90
74513;DHT22;62992;52.052;8.550;2022-12-08T06:06:57;3.20;99.90
74513;DHT22;62992;52.052;8.550;2022-12-08T06:09:41;3.20;99.90
74513;DHT22;62992;52.052;8.550;2022-12-08T06:12:26;3.20;99.90
74513;DHT22;62992;52.052;8.550;2022-12-08T06:15:10;3.10;99.90
74513;DHT22;62992;52.052;8.550;2022-12-08T06:17:54;3.10;99.90
74513;DHT22;62992;52.052;8.550;2022-12-08T06:20:38;3.10;99.90
74513;DHT22;62992;52.052;8.550;2022-12-08T06:23:22;3.10;99.90
74513;DHT22;62992;52.052;8.550;2022-12-08T06:26:15;3.10;99.90
74513;DHT22;62992;52.052;8.550;2022-12-08T06:29:00;3.10;99.90
74513;DHT22;62992;52.052;8.550;2022-12-08T06:31:44;3.20;99.90
74513;DHT22;62992;52.052;8.550;2022-12-08T06:34:28;3.20;99.90
74513;DHT22;62992;52.052;8.550;2022-12-08T06:37:12;3.20;99.90
74513;DHT22;62992;52.052;8.550;2022-12-08T06:39:56;3.20;99.90
74513;DHT22;62992;52.052;8.550;2022-12-08T06:42:43;3.30;99.90
74513;DHT22;62992;52.052;8.550;2022-12-08T06:45:27;3.20;99.90
74513;DHT22;62992;52.052;8.550;2022-12-08T06:48:11;3.20;99.90
74513;DHT22;62992;52.052;8.550;2022-12-08T06:50:55;3.20;99.90
74513;DHT22;62992;52.052;8.550;2022-12-08T06:53:39;3.20;99.90
74513;DHT22;62992;52.052;8.550;2022-12-08T06:56:23;3.30;99.90
74513;DHT22;62992;52.052;8.550;2022-12-08T06:59:11;3.20;99.90
74513;DHT22;62992;52.052;8.550;2022-12-08T07:01:55;3.30;99.90
74513;DHT22;62992;52.052;8.550;2022-12-08T07:04:40;3.20;99.90
74513;DHT22;62992;52.052;8.550;2022-12-08T07:07:24;3.30;99.90
74513;DHT22;62992;52.052;8.550;2022-12-08T07:10:08;3.30;99.90
74513;DHT22;62992;52.052;8.550;2022-12-08T07:12:52;3.30;99.90
74513;DHT22;62992;52.052;8.550;2022-12-08T07:15:36;3.30;99.90
74513;DHT22;62992;52.052;8.550;2022-12-08T07:18:20;3.30;99.90
74513;DHT22;62992;52.052;8.550;2022-12-08T07:21:06;3.30;99.90
74513;DHT22;62992;52.052;8.550;2022-12-08T07:23:51;3.30;99.90
74513;DHT22;62992;52.052;8.550;2022-12-08T07:26:35;3.30;99.90
74513;DHT22;62992;52.052;8.550;2022-12-08T07:29:19;3.20;99.90
74513;DHT22;62992;52.052;8.550;2022-12-08T07:32:03;3.30;99.90
74513;DHT22;62992;52.052;8.550;2022-12-08T07:34:48;3.30;99.90
74513;DHT22;62992;52.052;8.550;2022-12-08T07:37:32;3.20;99.90
74513;DHT22;62992;52.052;8.550;2022-12-08T07:40:17;3.20;99.90
74513;DHT22;62992;52.052;8.550;2022-12-08T07:43:01;3.20;99.90
74513;DHT22;62992;52.052;8.550;2022-12-08T07:45:45;3.20;99.90
74513;DHT22;62992;52.052;8.550;2022-12-08T07:48:29;3.20;99.90
74513;DHT22;62992;52.052;8.550;2022-12-08T07:51:15;3.20;99.90
74513;DHT22;62992;52.052;8.550;2022-12-08T07:53:59;3.30;99.90
74513;DHT22;62992;52.052;8.550;2022-12-08T07:56:43;3.30;99.90
74513;DHT22;62992;52.052;8.550;2022-12-08T07:59:27;3.30;99.90
74513;DHT22;62992;52.052;8.550;2022-12-08T08:02:16;3.30;99.90
74513;DHT22;62992;52.052;8.550;2022-12-08T08:05:00;3.30;99.90
74513;DHT22;62992;52.052;8.550;2022-12-08T08:07:44;3.30;99.90
74513;DHT22;62992;52.052;8.550;2022-12-08T08:10:31;3.40;99.90
74513;DHT22;62992;52.052;8.550;2022-12-08T08:13:15;3.40;99.90
74513;DHT22;62992;52.052;8.550;2022-12-08T08:16:04;3.40;99.90
74513;DHT22;62992;52.052;8.550;2022-12-08T08:18:49;3.40;99.90
74513;DHT22;62992;52.052;8.550;2022-12-08T08:21:33;3.40;99.90
74513;DHT22;62992;52.052;8.550;2022-12-08T08:24:18;3.40;99.90
74513;DHT22;62992;52.052;8.550;2022-12-08T08:27:03;3.40;99.90
74513;DHT22;62992;52.052;8.550;2022-12-08T08:29:47;3.40;99.90
74513;DHT22;62992;52.052;8.550;2022-12-08T08:32:34;3.40;99.90
74513;DHT22;62992;52.052;8.550;2022-12-08T08:35:18;3.40;99.90
74513;DHT22;62992;52.052;8.550;2022-12-08T08:38:02;3.40;99.90
74513;DHT22;62992;52.052;8.550;2022-12-08T08:40:47;3.50;99.90
74513;DHT22;62992;52.052;8.550;2022-12-08T08:43:31;3.50;99.90
74513;DHT22;62992;52.052;8.550;2022-12-08T08:46:15;3.50;99.90
74513;DHT22;62992;52.052;8.550;2022-12-08T08:48:59;3.50;99.90
74513;DHT22;62992;52.052;8.550;2022-12-08T08:51:44;3.50;99.90
74513;DHT22;62992;52.052;8.550;2022-12-08T08:54:28;3.50;99.90
74513;DHT22;62992;52.052;8.550;2022-12-08T08:57:13;3.50;99.90
74513;DHT22;62992;52.052;8.550;2022-12-08T08:59:57;3.60;99.90
74513;DHT22;62992;52.052;8.550;2022-12-08T09:02:41;3.50;99.90
74513;DHT22;62992;52.052;8.550;2022-12-08T09:05:25;3.50;99.90
74513;DHT22;62992;52.052;8.550;2022-12-08T09:08:09;3.50;99.90
74513;DHT22;62992;52.052;8.550;2022-12-08T09:10:54;3.50;99.90
74513;DHT22;62992;52.052;8.550;2022-12-08T09:13:38;3.50;99.90
74513;DHT22;62992;52.052;8.550;2022-12-08T09:16:23;3.60;99.90
74513;DHT22;62992;52.052;8.550;2022-12-08T09:19:07;3.50;99.90
74513;DHT22;62992;52.052;8.550;2022-12-08T09:21:51;3.60;99.90
74513;DHT22;62992;52.052;8.550;2022-12-08T09:24:35;3.60;99.90
74513;DHT22;62992;52.052;8.550;2022-12-08T09:27:19;3.60;99.90
74513;DHT22;62992;52.052;8.550;2022-12-08T09:30:03;3.60;99.90
74513;DHT22;62992;52.052;8.550;2022-12-08T09:32:47;3.60;99.90
74513;DHT22;62992;52.052;8.550;2022-12-08T09:35:32;3.60;99.90
74513;DHT22;62992;52.052;8.550;2022-12-08T09:38:16;3.50;99.90
74513;DHT22;62992;52.052;8.550;2022-12-08T09:41:03;3.60;99.90
74513;DHT22;62992;52.052;8.550;2022-12-08T09:46:38;3.60;99.90
74513;DHT22;62992;52.052;8.550;2022-12-08T09:49:37;3.60;99.90
74513;DHT22;62992;52.052;8.550;2022-12-08T09:52:25;3.60;99.90
74513;DHT22;62992;52.052;8.550;2022-12-08T09:55:21;3.60;99.90
74513;DHT22;62992;52.052;8.550;2022-12-08T09:58:14;3.60;99.90
74513;DHT22;62992;52.052;8.550;2022-12-08T10:01:00;3.60;99.90
74513;DHT22;62992;52.052;8.550;2022-12-08T10:03:45;3.70;99.90
74513;DHT22;62992;52.052;8.550;2022-12-08T10:06:37;3.80;99.90
74513;DHT22;62992;52.052;8.550;2022-12-08T10:12:42;3.80;99.90
74513;DHT22;62992;52.052;8.550;2022-12-08T10:15:39;3.90;99.90
74513;DHT22;62992;52.052;8.550;2022-12-08T10:18:28;3.90;99.90
74513;DHT22;62992;52.052;8.550;2022-12-08T10:21:17;3.80;99.90
74513;DHT22;62992;52.052;8.550;2022-12-08T10:24:05;3.80;99.90
74513;DHT22;62992;52.052;8.550;2022-12-08T10:26:54;3.80;99.90
74513;DHT22;62992;52.052;8.550;2022-12-08T10:29:41;3.90;99.90
74513;DHT22;62992;52.052;8.550;2022-12-08T10:32:33;3.90;99.90
74513;DHT22;62992;52.052;8.550;2022-12-08T10:35:20;3.80;99.90
74513;DHT22;62992;52.052;8.550;2022-12-08T10:38:04;3.80;99.90
74513;DHT22;62992;52.052;8.550;2022-12-08T10:40:51;3.80;99.90
74513;DHT22;62992;52.052;8.550;2022-12-08T10:43:49;3.80;99.90
74513;DHT22;62992;52.052;8.550;2022-12-08T10:46:37;3.80;99.90
74513;DHT22;62992;52.052;8.550;2022-12-08T10:49:27;3.80;99.90
74513;DHT22;62992;52.052;8.550;2022-12-08T10:52:24;3.80;99.90
74513;DHT22;62992;52.052;8.550;2022-12-08T10:55:16;3.70;99.90
74513;DHT22;62992;52.052;8.550;2022-12-08T10:58:00;3.70;99.90
74513;DHT22;62992;52.052;8.550;2022-12-08T11:00:45;3.80;99.90
74513;DHT22;62992;52.052;8.550;2022-12-08T11:03:35;3.80;99.90
74513;DHT22;62992;52.052;8.550;2022-12-08T11:12:12;3.80;99.90
74513;DHT22;62992;52.052;8.550;2022-12-08T11:15:01;3.80;99.90
74513;DHT22;62992;52.052;8.550;2022-12-08T11:17:59;3.80;99.90
74513;DHT22;62992;52.052;8.550;2022-12-08T11:20:45;3.70;99.90
74513;DHT22;62992;52.052;8.550;2022-12-08T11:23:29;3.70;99.90
74513;DHT22;62992;52.052;8.550;2022-12-08T11:26:25;3.70;99.90
74513;DHT22;62992;52.052;8.550;2022-12-08T11:29:11;3.80;99.90
74513;DHT22;62992;52.052;8.550;2022-12-08T11:31:59;3.90;99.90
74513;DHT22;62992;52.052;8.550;2022-12-08T11:34:48;3.90;99.90
74513;DHT22;62992;52.052;8.550;2022-12-08T11:37:42;4.00;99.90
74513;DHT22;62992;52.052;8.550;2022-12-08T11:40:36;4.00;99.90
74513;DHT22;62992;52.052;8.550;2022-12-08T11:46:18;4.00;99.90
74513;DHT22;62992;52.052;8.550;2022-12-08T11:49:13;4.00;99.90
74513;DHT22;62992;52.052;8.550;2022-12-08T11:52:19;4.10;99.90
74513;DHT22;62992;52.052;8.550;2022-12-08T11:55:28;4.10;99.90
74513;DHT22;62992;52.052;8.550;2022-12-08T11:58:20;4.10;99.90
74513;DHT22;62992;52.052;8.550;2022-12-08T12:01:07;4.10;99.90
74513;DHT22;62992;52.052;8.550;2022-12-08T12:07:20;4.20;99.90
74513;DHT22;62992;52.052;8.550;2022-12-08T12:10:36;4.20;99.90
74513;DHT22;62992;52.052;8.550;2022-12-08T12:16:22;4.20;99.90
74513;DHT22;62992;52.052;8.550;2022-12-08T12:19:15;4.10;99.90
74513;DHT22;62992;52.052;8.550;2022-12-08T12:22:19;4.10;99.90
74513;DHT22;62992;52.052;8.550;2022-12-08T12:25:05;4.10;99.90
74513;DHT22;62992;52.052;8.550;2022-12-08T12:27:51;4.10;99.90
74513;DHT22;62992;52.052;8.550;2022-12-08T12:31:01;4.10;99.90
74513;DHT22;62992;52.052;8.550;2022-12-08T12:33:48;4.00;99.90
74513;DHT22;62992;52.052;8.550;2022-12-08T12:36:53;4.10;99.90
74513;DHT22;62992;52.052;8.550;2022-12-08T12:39:54;4.00;99.90
74513;DHT22;62992;52.052;8.550;2022-12-08T12:57:57;3.90;99.90
74513;DHT22;62992;52.052;8.550;2022-12-08T13:00:42;3.80;99.90
74513;DHT22;62992;52.052;8.550;2022-12-08T13:03:27;3.80;99.90
74513;DHT22;62992;52.052;8.550;2022-12-08T13:06:13;3.80;99.90
74513;DHT22;62992;52.052;8.550;2022-12-08T13:08:58;3.80;99.90
74513;DHT22;62992;52.052;8.550;2022-12-08T13:11:50;3.80;99.90
74513;DHT22;62992;52.052;8.550;2022-12-08T13:14:42;3.90;99.90
74513;DHT22;62992;52.052;8.550;2022-12-08T13:17:31;3.90;99.90
74513;DHT22;62992;52.052;8.550;2022-12-08T13:20:21;3.90;99.90
74513;DHT22;62992;52.052;8.550;2022-12-08T13:23:24;3.90;99.90
74513;DHT22;62992;52.052;8.550;2022-12-08T13:29:14;3.80;99.90
74513;DHT22;62992;52.052;8.550;2022-12-08T13:34:55;3.80;99.90
74513;DHT22;62992;52.052;8.550;2022-12-08T13:37:46;3.80;99.90
74513;DHT22;62992;52.052;8.550;2022-12-08T13:40:32;3.90;99.90
74513;DHT22;62992;52.052;8.550;2022-12-08T13:46:09;3.80;99.90
74513;DHT22;62992;52.052;8.550;2022-12-08T13:48:54;3.80;99.90
74513;DHT22;62992;52.052;8.550;2022-12-08T13:51:42;3.80;99.90
74513;DHT22;62992;52.052;8.550;2022-12-08T13:54:38;3.80;99.90
74513;DHT22;62992;52.052;8.550;2022-12-08T13:57:24;3.80;99.90
74513;DHT22;62992;52.052;8.550;2022-12-08T14:00:18;3.80;99.90
74513;DHT22;62992;52.052;8.550;2022-12-08T14:03:03;3.80;99.90
74513;DHT22;62992;52.052;8.550;2022-12-08T14:05:47;3.70;99.90
74513;DHT22;62992;52.052;8.550;2022-12-08T14:08:33;3.70;99.90
74513;DHT22;62992;52.052;8.550;2022-12-08T14:11:33;3.60;99.90
74513;DHT22;62992;52.052;8.550;2022-12-08T14:14:38;3.70;99.90
74513;DHT22;62992;52.052;8.550;2022-12-08T14:17:23;3.60;99.90
74513;DHT22;62992;52.052;8.550;2022-12-08T14:22:56;3.60;99.90
74513;DHT22;62992;52.052;8.550;2022-12-08T14:25:46;3.60;99.90
74513;DHT22;62992;52.052;8.550;2022-12-08T14:28:33;3.60;99.90
74513;DHT22;62992;52.052;8.550;2022-12-08T14:31:18;3.50;99.90
74513;DHT22;62992;52.052;8.550;2022-12-08T14:34:02;3.50;99.90
74513;DHT22;62992;52.052;8.550;2022-12-08T14:36:46;3.50;99.90
74513;DHT22;62992;52.052;8.550;2022-12-08T14:39:31;3.50;99.90
74513;DHT22;62992;52.052;8.550;2022-12-08T14:42:24;3.50;99.90
74513;DHT22;62992;52.052;8.550;2022-12-08T14:45:11;3.40;99.90
74513;DHT22;62992;52.052;8.550;2022-12-08T14:47:56;3.40;99.90
74513;DHT22;62992;52.052;8.550;2022-12-08T14:50:53;3.40;99.90
74513;DHT22;62992;52.052;8.550;2022-12-08T14:53:41;3.30;99.90
74513;DHT22;62992;52.052;8.550;2022-12-08T14:56:33;3.30;99.90
74513;DHT22;62992;52.052;8.550;2022-12-08T14:59:29;3.30;99.90
74513;DHT22;62992;52.052;8.550;2022-12-08T15:05:25;3.30;99.90
74513;DHT22;62992;52.052;8.550;2022-12-08T15:08:12;3.20;99.90
74513;DHT22;62992;52.052;8.550;2022-12-08T15:14:23;3.10;99.90
74513;DHT22;62992;52.052;8.550;2022-12-08T15:20:38;3.10;99.90
74513;DHT22;62992;52.052;8.550;2022-12-08T15:26:23;3.10;99.90
74513;DHT22;62992;52.052;8.550;2022-12-08T15:29:10;3.10;99.90
74513;DHT22;62992;52.052;8.550;2022-12-08T15:31:58;3.10;99.90
74513;DHT22;62992;52.052;8.550;2022-12-08T15:34:43;3.10;99.90
74513;DHT22;62992;52.052;8.550;2022-12-08T15:37:27;3.00;99.90
74513;DHT22;62992;52.052;8.550;2022-12-08T15:40:16;3.10;99.90
74513;DHT22;62992;52.052;8.550;2022-12-08T15:43:01;3.00;99.90
74513;DHT22;62992;52.052;8.550;2022-12-08T15:45:45;3.00;99.90
74513;DHT22;62992;52.052;8.550;2022-12-08T15:48:30;3.00;99.90
74513;DHT22;62992;52.052;8.550;2022-12-08T15:51:15;3.00;99.90
74513;DHT22;62992;52.052;8.550;2022-12-08T15:53:59;3.00;99.90
74513;DHT22;62992;52.052;8.550;2022-12-08T15:56:46;3.10;99.90
74513;DHT22;62992;52.052;8.550;2022-12-08T15:59:32;3.00;99.90
74513;DHT22;62992;52.052;8.550;2022-12-08T16:02:17;3.00;99.90
74513;DHT22;62992;52.052;8.550;2022-12-08T16:05:02;3.00;99.90
74513;DHT22;62992;52.052;8.550;2022-12-08T16:07:46;3.00;99.90
74513;DHT22;62992;52.052;8.550;2022-12-08T16:10:30;3.00;99.90
74513;DHT22;62992;52.052;8.550;2022-12-08T16:13:19;2.90;99.90
74513;DHT22;62992;52.052;8.550;2022-12-08T16:16:28;2.80;99.90
74513;DHT22;62992;52.052;8.550;2022-12-08T16:19:13;2.80;99.90
74513;DHT22;62992;52.052;8.550;2022-12-08T16:21:57;2.70;99.90
74513;DHT22;62992;52.052;8.550;2022-12-08T16:24:41;2.70;99.90
74513;DHT22;62992;52.052;8.550;2022-12-08T16:27:30;2.70;99.90
74513;DHT22;62992;52.052;8.550;2022-12-08T16:30:16;2.70;99.90
74513;DHT22;62992;52.052;8.550;2022-12-08T16:33:01;2.70;99.90
74513;DHT22;62992;52.052;8.550;2022-12-08T16:35:45;2.60;99.90
74513;DHT22;62992;52.052;8.550;2022-12-08T16:38:29;2.60;99.90
74513;DHT22;62992;52.052;8.550;2022-12-08T16:41:14;2.70;99.90
74513;DHT22;62992;52.052;8.550;2022-12-08T16:44:18;2.70;99.90
74513;DHT22;62992;52.052;8.550;2022-12-08T16:47:07;2.70;99.90
74513;DHT22;62992;52.052;8.550;2022-12-08T16:49:52;2.70;99.90
74513;DHT22;62992;52.052;8.550;2022-12-08T16:52:36;2.80;99.90
74513;DHT22;62992;52.052;8.550;2022-12-08T16:55:20;2.80;99.90
74513;DHT22;62992;52.052;8.550;2022-12-08T16:58:05;2.70;99.90
74513;DHT22;62992;52.052;8.550;2022-12-08T17:00:49;2.70;99.90
74513;DHT22;62992;52.052;8.550;2022-12-08T17:03:33;2.70;99.90
74513;DHT22;62992;52.052;8.550;2022-12-08T17:06:18;2.70;99.90
74513;DHT22;62992;52.052;8.550;2022-12-08T17:09:02;2.70;99.90
74513;DHT22;62992;52.052;8.550;2022-12-08T17:11:46;2.70;99.90
74513;DHT22;62992;52.052;8.550;2022-12-08T17:14:33;2.70;99.90
74513;DHT22;62992;52.052;8.550;2022-12-08T17:17:18;2.60;99.90
74513;DHT22;62992;52.052;8.550;2022-12-08T17:20:03;2.60;99.90
74513;DHT22;62992;52.052;8.550;2022-12-08T17:22:49;2.60;99.90
74513;DHT22;62992;52.052;8.550;2022-12-08T17:25:33;2.60;99.90
74513;DHT22;62992;52.052;8.550;2022-12-08T17:28:17;2.50;99.90
74513;DHT22;62992;52.052;8.550;2022-12-08T17:31:01;2.50;99.90
74513;DHT22;62992;52.052;8.550;2022-12-08T17:33:46;2.50;99.90
74513;DHT22;62992;52.052;8.550;2022-12-08T17:36:31;2.40;99.90
74513;DHT22;62992;52.052;8.550;2022-12-08T17:39:15;2.40;99.90
74513;DHT22;62992;52.052;8.550;2022-12-08T17:41:59;2.40;99.90
74513;DHT22;62992;52.052;8.550;2022-12-08T17:44:43;2.40;99.90
74513;DHT22;62992;52.052;8.550;2022-12-08T17:47:29;2.40;99.90
74513;DHT22;62992;52.052;8.550;2022-12-08T17:50:13;2.40;99.90
74513;DHT22;62992;52.052;8.550;2022-12-08T17:52:57;2.40;99.90
74513;DHT22;62992;52.052;8.550;2022-12-08T17:55:41;2.40;99.90
74513;DHT22;62992;52.052;8.550;2022-12-08T17:58:25;2.40;99.90
74513;DHT22;62992;52.052;8.550;2022-12-08T18:01:10;2.50;99.90
74513;DHT22;62992;52.052;8.550;2022-12-08T18:03:54;2.50;99.90
74513;DHT22;62992;52.052;8.550;2022-12-08T18:06:40;2.50;99.90
74513;DHT22;62992;52.052;8.550;2022-12-08T18:09:24;2.50;99.90
74513;DHT22;62992;52.052;8.550;2022-12-08T18:12:08;2.40;99.90
74513;DHT22;62992;52.052;8.550;2022-12-08T18:14:52;2.40;99.90
74513;DHT22;62992;52.052;8.550;2022-12-08T18:17:36;2.40;99.90
74513;DHT22;62992;52.052;8.550;2022-12-08T18:20:20;2.30;99.90
74513;DHT22;62992;52.052;8.550;2022-12-08T18:23:04;2.40;99.90
74513;DHT22;62992;52.052;8.550;2022-12-08T18:25:49;2.40;99.90
74513;DHT22;62992;52.052;8.550;2022-12-08T18:28:34;2.40;99.90
74513;DHT22;62992;52.052;8.550;2022-12-08T18:31:20;2.50;99.90
74513;DHT22;62992;52.052;8.550;2022-12-08T18:34:04;2.50;99.90
74513;DHT22;62992;52.052;8.550;2022-12-08T18:36:49;2.50;99.90
74513;DHT22;62992;52.052;8.550;2022-12-08T18:39:34;2.50;99.90
74513;DHT22;62992;52.052;8.550;2022-12-08T18:42:18;2.40;99.90
74513;DHT22;62992;52.052;8.550;2022-12-08T18:45:10;2.30;99.90
74513;DHT22;62992;52.052;8.550;2022-12-08T18:47:54;2.20;99.90
74513;DHT22;62992;52.052;8.550;2022-12-08T18:50:40;2.10;99.90
74513;DHT22;62992;52.052;8.550;2022-12-08T18:53:25;2.00;99.90
74513;DHT22;62992;52.052;8.550;2022-12-08T18:56:30;1.90;99.90
74513;DHT22;62992;52.052;8.550;2022-12-08T18:59:14;1.90;99.90
74513;DHT22;62992;52.052;8.550;2022-12-08T19:01:58;1.90;99.90
74513;DHT22;62992;52.052;8.550;2022-12-08T19:04:43;1.80;99.90
74513;DHT22;62992;52.052;8.550;2022-12-08T19:07:27;1.80;99.90
74513;DHT22;62992;52.052;8.550;2022-12-08T19:10:11;1.80;99.90
74513;DHT22;62992;52.052;8.550;2022-12-08T19:12:56;1.80;99.90
74513;DHT22;62992;52.052;8.550;2022-12-08T19:15:40;1.90;99.90